Weather History for Ft. Stewart, GA

Change the Weather History Date:

Thursday, September 26, 2013

  Actual Average Record
Temperature  
Mean Temperature 69 °F -  
Max Temperature 72 °F 85 °F 93 °F (1984)
Min Temperature 66 °F 64 °F 53 °F (2001)
Cooling Degree Days 4    
Growing Degree Days 19 (Base 50)    
Moisture  
Dew Point 69 °F    
Average Humidity 99    
Maximum Humidity 100    
Minimum Humidity 91    
Precipitation  
Precipitation 0.92 in - - ()
Sea Level Pressure  
Sea Level Pressure 29.84 in    
Wind  
Wind Speed 7 mph (North)    
Max Wind Speed 13 mph    
Max Gust Speed -    
Visibility 8 miles    
Events Rain    
Averages and records for this station are not official NWS values.
T = Trace of Precipitation, MM = Missing Value Source: NWS Daily Summary

Daily Weather History Graph

Daily Weather History Graph

Search for Another Location

Airport:

Trip Planner

Search our weather history database for the weather conditions in past years. The results will help you decide how hot, cold, wet, or windy it might be!

Date:

Astronomy

Sep. 26, 2013 Rise Set
Actual Time 7:17 AM EDT 7:17 PM EDT
Civil Twilight 6:52 AM EDT 7:41 PM EDT
Nautical Twilight 6:24 AM EDT 8:09 PM EDT
Astronomical Twilight 5:55 AM EDT 8:38 PM EDT
Moon No Moon Rise 1:50 PM EDT
Length of Visible Light 12h 48m
Length of Day
12h 00m
Waning Gibbous, 55% of the Moon is Illuminated
Sep 26
Waning Gibbous
Sep 26
Last Quarter
Oct 4
New
Oct 11
First Quarter
Oct 18
Full

Hourly Weather History & Observations

Time (EDT) Temp. Dew Point Humidity Pressure Visibility Wind Dir Wind Speed Gust Speed Precip Events Conditions
12:58 AM 71.1 °F 71.1 °F 100% 29.81 in 10.0 mi North 5.8 mph - N/A   Mostly Cloudy
1:13 AM 71.6 °F 71.6 °F 100% 29.79 in 10.0 mi North 4.6 mph - N/A   Overcast
1:37 AM 71.6 °F 71.6 °F 100% 29.79 in 10.0 mi North 5.8 mph - N/A Rain Light Rain
1:47 AM 71.6 °F 71.6 °F 100% 29.79 in 10.0 mi North 8.1 mph - N/A Rain Light Rain
1:57 AM 69.8 °F 69.8 °F 100% 29.79 in 10.0 mi NNE 9.2 mph - N/A   Light Drizzle
1:58 AM 70.9 °F 70.9 °F 100% 29.80 in 10.0 mi NNE 8.1 mph - 0.00 in   Light Drizzle
2:00 AM 69.8 °F 69.8 °F 100% 29.79 in 10.0 mi NNE 8.1 mph - N/A   Overcast
2:31 AM 69.8 °F 69.8 °F 100% 29.79 in 10.0 mi North 6.9 mph - N/A Rain Light Rain
2:36 AM 69.8 °F 69.8 °F 100% 29.79 in 7.0 mi North 6.9 mph - N/A Rain Heavy Rain
2:41 AM 69.8 °F 69.8 °F 100% 29.79 in 5.0 mi NNE 8.1 mph - N/A Rain Heavy Rain
2:51 AM 69.8 °F 69.8 °F 100% 29.79 in 4.0 mi NNE 5.8 mph - N/A Rain Heavy Rain
2:56 AM 69.8 °F 69.8 °F 100% 29.79 in 4.0 mi North 4.6 mph - N/A Rain Heavy Rain
2:58 AM 69.4 °F 69.4 °F 100% 29.80 in 3.0 mi North 2.3 mph - 0.07 in Rain Heavy Rain
3:03 AM 69.8 °F 69.8 °F 100% 29.79 in 1.2 mi North 6.9 mph - N/A Rain Heavy Rain
3:13 AM 69.8 °F 69.8 °F 100% 29.78 in 3.0 mi NNE 10.4 mph - N/A Rain Heavy Rain
3:18 AM 69.8 °F 69.8 °F 100% 29.78 in 5.0 mi NNE 8.1 mph - N/A Rain Rain
3:23 AM 69.8 °F 69.8 °F 100% 29.77 in 6.0 mi North 8.1 mph - N/A Rain Light Rain
3:53 AM 69.8 °F 69.8 °F 100% 29.78 in 4.0 mi North 11.5 mph - N/A Rain Heavy Rain
3:58 AM 68.9 °F 68.9 °F 100% 29.79 in 2.5 mi North 12.7 mph - 0.29 in Rain Heavy Rain
4:03 AM 68.0 °F 68.0 °F 100% 29.78 in 1.2 mi North 12.7 mph - N/A Rain Heavy Rain
4:13 AM 68.0 °F 68.0 °F 100% 29.78 in 2.5 mi North 5.8 mph - N/A Rain Heavy Rain
4:23 AM 68.0 °F 68.0 °F 100% 29.78 in 3.0 mi North 8.1 mph - N/A Rain Heavy Rain
4:33 AM 68.0 °F 68.0 °F 100% 29.78 in 7.0 mi NNW 6.9 mph - N/A Rain Light Rain
4:38 AM 68.0 °F 68.0 °F 100% 29.78 in 10.0 mi North 5.8 mph - N/A Rain Light Rain
4:50 AM 68.0 °F 68.0 °F 100% 29.78 in 10.0 mi NE 8.1 mph - N/A   Overcast
4:55 AM 68.0 °F 68.0 °F 100% 29.78 in 10.0 mi NNE 6.9 mph - N/A   Overcast
4:58 AM 68.0 °F 68.0 °F 100% 29.79 in 10.0 mi NNE 6.9 mph - 0.56 in   Overcast
5:58 AM 68.4 °F 68.4 °F 100% 29.81 in 10.0 mi North 5.8 mph - N/A   Overcast
6:58 AM 67.6 °F 67.6 °F 100% 29.83 in 10.0 mi North 4.6 mph - N/A   Overcast
7:38 AM 68.0 °F 68.0 °F 100% 29.84 in 10.0 mi North 4.6 mph - N/A   Overcast
7:58 AM 67.5 °F 67.5 °F 100% 29.86 in 10.0 mi NNW 5.8 mph - N/A   Overcast
8:33 AM 68.0 °F 68.0 °F 100% 29.85 in 10.0 mi North 8.1 mph - N/A   Overcast
8:58 AM 68.2 °F 68.2 °F 100% 29.87 in 10.0 mi North 9.2 mph - N/A   Overcast
9:58 AM 68.5 °F 68.5 °F 100% 29.89 in 10.0 mi North 6.9 mph - N/A   Overcast
10:38 AM 69.8 °F 69.8 °F 100% 29.89 in 10.0 mi North 10.4 mph - N/A   Overcast
10:43 AM 69.8 °F 69.8 °F 100% 29.89 in 10.0 mi North 12.7 mph - N/A   Overcast
10:58 AM 68.7 °F 68.7 °F 100% 29.90 in 10.0 mi North 9.2 mph - N/A   Overcast
11:58 AM 69.1 °F 68.7 °F 99% 29.90 in 10.0 mi North 8.1 mph - N/A   Overcast
12:48 PM 69.8 °F 68.0 °F 94% 29.89 in 10.0 mi NNW 9.2 mph - N/A   Overcast
12:58 PM 69.6 °F 68.5 °F 96% 29.90 in 10.0 mi North 8.1 mph - N/A   Overcast
1:51 PM 69.8 °F 68.0 °F 94% 29.89 in 10.0 mi North 6.9 mph - N/A   Light Drizzle
1:56 PM 69.8 °F 69.8 °F 100% 29.89 in 10.0 mi North 6.9 mph - N/A   Light Drizzle
1:58 PM 69.3 °F 68.9 °F 99% 29.90 in 10.0 mi NNW 9.2 mph - 0.00 in   Light Drizzle
2:15 PM 68.0 °F 68.0 °F 100% 29.88 in 10.0 mi North 5.8 mph - N/A   Overcast
2:58 PM 70.3 °F 70.2 °F 99% 29.89 in 10.0 mi North 9.2 mph - 0.00 in   Overcast
3:13 PM 71.6 °F 69.8 °F 94% 29.88 in 10.0 mi North 9.2 mph - N/A   Overcast
3:58 PM 71.8 °F 70.3 °F 95% 29.89 in 10.0 mi NNW 10.4 mph - N/A   Overcast
4:58 PM 71.6 °F 70.3 °F 96% 29.90 in 10.0 mi Variable 4.6 mph - N/A   Overcast
5:18 PM 71.6 °F 71.6 °F 100% 29.89 in 10.0 mi North 5.8 mph - N/A   Overcast
5:58 PM 72.3 °F 69.6 °F 91% 29.91 in 10.0 mi NNE 6.9 mph - N/A   Overcast
6:08 PM 71.6 °F 69.8 °F 94% 29.90 in 10.0 mi North 5.8 mph - N/A   Overcast
6:58 PM 71.4 °F 70.2 °F 96% 29.92 in 10.0 mi North 3.5 mph - N/A   Overcast
7:58 PM 69.8 °F 69.8 °F 100% 29.93 in 10.0 mi North 2.3 mph - N/A   Overcast
8:58 PM 67.1 °F 67.1 °F 100% 29.94 in 10.0 mi Calm Calm - N/A   Clear
9:58 PM 66.2 °F 66.2 °F 100% 29.95 in 10.0 mi Calm Calm - N/A   Overcast
10:58 PM 66.9 °F 66.9 °F 100% 29.96 in 10.0 mi Calm Calm - N/A   Overcast
11:48 PM 66.2 °F 66.2 °F 100% 29.95 in 9.0 mi NNW 2.3 mph - N/A   Overcast
11:58 PM 66.6 °F 66.6 °F 100% 29.96 in 10.0 mi NNW 2.3 mph - N/A   Scattered Clouds